createdAt,value
2022-11-26T00:00:55.106Z,0
2022-11-26T00:01:55.482Z,0
2022-11-26T00:02:55.805Z,0
2022-11-26T00:03:55.281Z,0
2022-11-26T00:04:55.351Z,0
2022-11-26T00:05:55.176Z,0
2022-11-26T00:06:55.484Z,0
2022-11-26T00:07:55.822Z,0
2022-11-26T00:08:55.251Z,0
2022-11-26T00:09:55.512Z,0
2022-11-26T00:10:55.530Z,0
2022-11-26T00:11:55.038Z,0
2022-11-26T00:12:55.390Z,0
2022-11-26T00:13:55.349Z,0
2022-11-26T00:14:55.093Z,0
2022-11-26T00:15:55.627Z,0
2022-11-26T00:16:55.769Z,0
2022-11-26T00:17:55.655Z,0
2022-11-26T00:18:55.434Z,0
2022-11-26T00:19:54.641Z,0
2022-11-26T00:20:55.478Z,0
2022-11-26T00:21:55.720Z,0
2022-11-26T00:22:55.765Z,0
2022-11-26T00:23:55.573Z,0
2022-11-26T00:24:55.251Z,0
2022-11-26T00:25:54.999Z,0
2022-11-26T00:26:55.307Z,0
2022-11-26T00:27:55.062Z,0
2022-11-26T00:28:55.634Z,0
2022-11-26T00:29:55.868Z,0
2022-11-26T00:30:55.606Z,0
2022-11-26T00:31:55.867Z,0
2022-11-26T00:32:55.639Z,0
2022-11-26T00:33:55.178Z,0
2022-11-26T00:34:55.149Z,0
2022-11-26T00:35:55.428Z,0
2022-11-26T00:36:55.451Z,0
2022-11-26T00:37:56.002Z,0
2022-11-26T00:38:55.494Z,0
2022-11-26T00:39:55.509Z,0
2022-11-26T00:40:56.027Z,0
2022-11-26T00:41:55.826Z,0
2022-11-26T00:43:01.962Z,0
2022-11-26T00:43:55.819Z,0
2022-11-26T00:44:56.134Z,0
2022-11-26T00:45:56.503Z,0
2022-11-26T00:46:56.141Z,0
2022-11-26T00:47:55.906Z,0
2022-11-26T00:48:56.174Z,0
2022-11-26T00:49:55.951Z,0
2022-11-26T00:50:55.425Z,0
2022-11-26T00:51:55.692Z,0
2022-11-26T00:52:55.697Z,0
2022-11-26T00:53:55.998Z,0
2022-11-26T00:54:56.013Z,0
2022-11-26T00:55:56.045Z,0
2022-11-26T00:56:55.526Z,0
2022-11-26T00:57:56.294Z,0
2022-11-26T00:58:56.336Z,0
2022-11-26T00:59:56.364Z,0
2022-11-26T01:00:56.702Z,0
2022-11-26T01:01:56.608Z,0
2022-11-26T01:02:55.853Z,0
2022-11-26T01:03:55.908Z,0
2022-11-26T01:04:55.649Z,0
2022-11-26T01:05:55.930Z,0
2022-11-26T01:06:56.202Z,0
2022-11-26T01:07:56.980Z,0
2022-11-26T01:08:56.491Z,0
2022-11-26T01:09:56.251Z,0
2022-11-26T01:10:56.545Z,0
2022-11-26T01:12:01.397Z,0
2022-11-26T01:12:56.313Z,0
2022-11-26T01:13:55.806Z,0
2022-11-26T01:14:56.605Z,0
2022-11-26T01:15:56.600Z,0
2022-11-26T01:16:56.637Z,0
2022-11-26T01:17:56.673Z,0
2022-11-26T01:18:56.399Z,0
2022-11-26T01:19:56.661Z,0
2022-11-26T01:20:56.708Z,0
2022-11-26T01:21:56.263Z,0
2022-11-26T01:22:56.458Z,0
2022-11-26T01:23:56.234Z,0
2022-11-26T01:24:56.512Z,0
2022-11-26T01:25:56.510Z,0
2022-11-26T01:26:56.822Z,0
2022-11-26T01:27:56.590Z,0
2022-11-26T01:28:56.556Z,0
2022-11-26T01:29:56.314Z,0
2022-11-26T01:30:56.609Z,0
2022-11-26T01:31:57.519Z,0
2022-11-26T01:32:56.417Z,0
2022-11-26T01:33:56.931Z,0
2022-11-26T01:34:56.674Z,0
2022-11-26T01:35:56.406Z,0
2022-11-26T01:36:56.957Z,0
2022-11-26T01:37:56.988Z,0
2022-11-26T01:38:56.724Z,0
2022-11-26T01:39:56.768Z,0
2022-11-26T01:40:56.498Z,0
2022-11-26T01:41:56.778Z,0
2022-11-26T01:42:56.827Z,0
2022-11-26T01:43:56.834Z,0
2022-11-26T01:44:56.834Z,0
2022-11-26T01:45:57.064Z,0
2022-11-26T01:46:56.357Z,0
2022-11-26T01:47:57.152Z,0
2022-11-26T01:48:57.329Z,0
2022-11-26T01:49:56.937Z,0
2022-11-26T01:50:56.672Z,0
2022-11-26T01:51:57.200Z,0
2022-11-26T01:52:56.702Z,0
2022-11-26T01:53:57.247Z,0
2022-11-26T01:54:57.340Z,0
2022-11-26T01:55:56.756Z,0
2022-11-26T01:56:57.024Z,0
2022-11-26T01:57:57.301Z,0
2022-11-26T01:58:57.095Z,0
2022-11-26T01:59:57.352Z,0
2022-11-26T02:00:57.159Z,0
2022-11-26T02:01:57.542Z,0
2022-11-26T02:02:57.017Z,0
2022-11-26T02:03:57.396Z,0
2022-11-26T02:04:57.478Z,0
2022-11-26T02:05:56.947Z,0
2022-11-26T02:06:56.698Z,0
2022-11-26T02:07:57.730Z,0
2022-11-26T02:08:57.249Z,0
2022-11-26T02:09:57.242Z,0
2022-11-26T02:10:57.262Z,0
2022-11-26T02:11:57.537Z,0
2022-11-26T02:12:57.023Z,0
2022-11-26T02:13:57.318Z,0
2022-11-26T02:14:57.609Z,0
2022-11-26T02:15:57.102Z,0
2022-11-26T02:16:57.627Z,0
2022-11-26T02:17:57.466Z,0
2022-11-26T02:18:57.633Z,0
2022-11-26T02:19:57.677Z,0
2022-11-26T02:20:57.200Z,0
2022-11-26T02:21:57.473Z,0
2022-11-26T02:22:57.218Z,0
2022-11-26T02:23:57.724Z,0
2022-11-26T02:24:56.713Z,0
2022-11-26T02:25:57.502Z,0
2022-11-26T02:26:57.778Z,0
2022-11-26T02:27:57.286Z,0
2022-11-26T02:28:57.280Z,0
2022-11-26T02:29:57.848Z,0
2022-11-26T02:30:57.617Z,0
2022-11-26T02:31:57.831Z,0
2022-11-26T02:32:57.610Z,0
2022-11-26T02:33:57.120Z,0
2022-11-26T02:34:57.394Z,0
2022-11-26T02:35:57.408Z,0
2022-11-26T02:36:57.476Z,0
2022-11-26T02:37:57.759Z,0
2022-11-26T02:38:57.470Z,0
2022-11-26T02:39:57.224Z,0
2022-11-26T02:40:57.491Z,0
2022-11-26T02:41:57.751Z,0
2022-11-26T02:42:57.779Z,0
2022-11-26T02:43:58.055Z,0
2022-11-26T02:44:58.074Z,0
2022-11-26T02:45:58.139Z,0
2022-11-26T02:46:57.900Z,0
2022-11-26T02:47:57.910Z,0
2022-11-26T02:48:57.899Z,0
2022-11-26T02:49:57.895Z,0
2022-11-26T02:50:57.917Z,0
2022-11-26T02:51:57.678Z,0
2022-11-26T02:52:57.987Z,0
2022-11-26T02:53:58.007Z,0
2022-11-26T02:54:57.763Z,0
2022-11-26T02:55:58.244Z,0
2022-11-26T02:56:58.002Z,0
2022-11-26T02:57:57.768Z,0
2022-11-26T02:58:58.309Z,0
2022-11-26T02:59:58.103Z,0
2022-11-26T03:00:58.652Z,0
2022-11-26T03:01:58.130Z,0
2022-11-26T03:02:58.412Z,0
2022-11-26T03:03:58.298Z,0
2022-11-26T03:04:58.138Z,0
2022-11-26T03:05:57.907Z,0
2022-11-26T03:06:57.922Z,0
2022-11-26T03:07:58.618Z,0
2022-11-26T03:08:58.008Z,0
2022-11-26T03:09:58.497Z,0
2022-11-26T03:10:57.992Z,0
2022-11-26T03:11:58.887Z,0
2022-11-26T03:12:58.532Z,0
2022-11-26T03:13:58.118Z,0
2022-11-26T03:14:58.300Z,0
2022-11-26T03:15:58.110Z,0
2022-11-26T03:16:58.981Z,0
2022-11-26T03:17:58.627Z,0
2022-11-26T03:18:58.399Z,0
2022-11-26T03:19:58.836Z,0
2022-11-26T03:21:01.418Z,0
2022-11-26T03:21:58.165Z,0
2022-11-26T03:22:58.434Z,0
2022-11-26T03:23:57.966Z,0
2022-11-26T03:24:58.810Z,0
2022-11-26T03:25:58.267Z,0
2022-11-26T03:26:58.512Z,0
2022-11-26T03:27:58.255Z,0
2022-11-26T03:28:58.845Z,0
2022-11-26T03:29:58.833Z,0
2022-11-26T03:30:58.067Z,0
2022-11-26T03:31:58.704Z,0
2022-11-26T03:32:58.104Z,0
2022-11-26T03:33:58.629Z,0
2022-11-26T03:34:58.675Z,0
2022-11-26T03:35:58.444Z,0
2022-11-26T03:36:58.667Z,0
2022-11-26T03:37:58.428Z,0
2022-11-26T03:38:58.967Z,0
2022-11-26T03:39:59.079Z,0
2022-11-26T03:40:59.044Z,0
2022-11-26T03:41:59.293Z,0
2022-11-26T03:42:58.777Z,0
2022-11-26T03:43:58.781Z,0
2022-11-26T03:44:58.532Z,0
2022-11-26T03:45:58.925Z,0
2022-11-26T03:46:58.062Z,0
2022-11-26T03:47:58.973Z,0
2022-11-26T03:48:58.646Z,0
2022-11-26T03:49:59.303Z,0
2022-11-26T03:50:59.292Z,0
2022-11-26T03:51:58.977Z,0
2022-11-26T03:52:58.945Z,0
2022-11-26T03:53:58.685Z,0
2022-11-26T03:54:59.310Z,0
2022-11-26T03:55:58.473Z,0
2022-11-26T03:56:59.376Z,0
2022-11-26T03:57:59.356Z,0
2022-11-26T03:58:58.504Z,0
2022-11-26T03:59:59.049Z,0
2022-11-26T04:00:59.427Z,0
2022-11-26T04:01:59.592Z,0
2022-11-26T04:02:59.725Z,0
2022-11-26T04:03:58.328Z,0
2022-11-26T04:04:59.133Z,0
2022-11-26T04:05:59.143Z,0
2022-11-26T04:06:58.904Z,0
2022-11-26T04:07:59.606Z,0
2022-11-26T04:08:59.359Z,0
2022-11-26T04:09:59.359Z,0
2022-11-26T04:10:58.692Z,0
2022-11-26T04:11:59.283Z,0
2022-11-26T04:12:59.056Z,0
2022-11-26T04:13:59.560Z,0
2022-11-26T04:14:59.528Z,0
2022-11-26T04:15:59.377Z,0
2022-11-26T04:16:59.872Z,0
2022-11-26T04:17:59.072Z,0
2022-11-26T04:18:59.357Z,0
2022-11-26T04:19:59.379Z,0
2022-11-26T04:21:02.329Z,0
2022-11-26T04:21:59.381Z,0
2022-11-26T04:22:59.192Z,0
2022-11-26T04:23:59.715Z,0
2022-11-26T04:24:59.696Z,0
2022-11-26T04:25:59.709Z,0
2022-11-26T04:26:59.362Z,0
2022-11-26T04:27:59.750Z,0
2022-11-26T04:28:59.566Z,0
2022-11-26T04:29:59.812Z,0
2022-11-26T04:30:59.846Z,0
2022-11-26T04:31:59.904Z,0
2022-11-26T04:32:59.837Z,0
2022-11-26T04:33:59.867Z,0
2022-11-26T04:34:59.622Z,0
2022-11-26T04:35:59.624Z,0
2022-11-26T04:36:59.632Z,0
2022-11-26T04:37:59.410Z,0
2022-11-26T04:38:59.442Z,0
2022-11-26T04:39:59.707Z,0
2022-11-26T04:40:59.712Z,0
2022-11-26T04:41:59.722Z,0
2022-11-26T04:43:00.002Z,0
2022-11-26T04:44:00.151Z,0
2022-11-26T04:44:59.810Z,0
2022-11-26T04:46:00.561Z,0
2022-11-26T04:46:59.798Z,0
2022-11-26T04:47:59.564Z,0
2022-11-26T04:48:59.595Z,0
2022-11-26T04:49:59.844Z,0
2022-11-26T04:51:00.118Z,0
2022-11-26T04:52:00.150Z,0
2022-11-26T04:52:59.909Z,0
2022-11-26T04:54:15.964Z,0
2022-11-26T04:54:59.692Z,0
2022-11-26T04:55:59.974Z,0
2022-11-26T04:57:00.231Z,0
2022-11-26T04:57:59.993Z,0
2022-11-26T04:59:00.103Z,0
2022-11-26T05:00:00.265Z,0
2022-11-26T05:01:01.283Z,0
2022-11-26T05:01:59.809Z,0
2022-11-26T05:03:00.517Z,0
2022-11-26T05:04:00.087Z,0
2022-11-26T05:05:00.096Z,0
2022-11-26T05:06:00.164Z,0
2022-11-26T05:07:00.129Z,0
2022-11-26T05:08:00.556Z,0
2022-11-26T05:08:59.905Z,0
2022-11-26T05:10:00.187Z,0
2022-11-26T05:10:59.951Z,0
2022-11-26T05:12:00.231Z,0
2022-11-26T05:12:59.969Z,0
2022-11-26T05:13:59.985Z,0
2022-11-26T05:15:00.258Z,0
2022-11-26T05:16:00.011Z,0
2022-11-26T05:17:00.948Z,0
2022-11-26T05:18:00.338Z,0
2022-11-26T05:19:00.588Z,0
2022-11-26T05:20:00.333Z,0
2022-11-26T05:21:00.096Z,0
2022-11-26T05:22:00.631Z,0
2022-11-26T05:23:00.381Z,0
2022-11-26T05:24:00.673Z,0
2022-11-26T05:25:00.425Z,0
2022-11-26T05:26:00.429Z,0
2022-11-26T05:27:06.334Z,0
2022-11-26T05:28:00.476Z,0
2022-11-26T05:29:00.218Z,0
2022-11-26T05:30:00.514Z,0
2022-11-26T05:31:00.260Z,0
2022-11-26T05:32:00.856Z,0
2022-11-26T05:33:00.590Z,0
2022-11-26T05:34:00.852Z,0
2022-11-26T05:35:07.746Z,0
2022-11-26T05:36:00.597Z,0
2022-11-26T05:37:00.357Z,0
2022-11-26T05:38:00.375Z,0
2022-11-26T05:39:00.924Z,0
2022-11-26T05:40:00.405Z,0
2022-11-26T05:40:59.957Z,0
2022-11-26T05:42:03.667Z,0
2022-11-26T05:43:01.022Z,0
2022-11-26T05:44:00.997Z,0
2022-11-26T05:45:00.223Z,0
2022-11-26T05:46:00.637Z,0
2022-11-26T05:47:01.040Z,0
2022-11-26T05:48:00.333Z,0
2022-11-26T05:49:00.865Z,0
2022-11-26T05:50:00.851Z,0
2022-11-26T05:51:04.346Z,0
2022-11-26T05:52:00.844Z,0
2022-11-26T05:53:00.868Z,0
2022-11-26T05:54:00.897Z,0
2022-11-26T05:55:00.995Z,0
2022-11-26T05:56:00.919Z,0
2022-11-26T05:57:08.168Z,0
2022-11-26T05:58:00.960Z,0
2022-11-26T05:59:01.011Z,0
2022-11-26T06:00:00.737Z,0
2022-11-26T06:01:01.263Z,0
2022-11-26T06:02:01.448Z,0
2022-11-26T06:03:02.276Z,0
2022-11-26T06:04:01.172Z,0
2022-11-26T06:05:01.375Z,0
2022-11-26T06:06:01.394Z,0
2022-11-26T06:07:01.125Z,0
2022-11-26T06:08:01.383Z,0
2022-11-26T06:09:01.148Z,0
2022-11-26T06:10:01.159Z,0
2022-11-26T06:11:01.155Z,0
2022-11-26T06:12:01.168Z,0
2022-11-26T06:13:01.194Z,0
2022-11-26T06:14:01.468Z,0
2022-11-26T06:15:01.279Z,0
2022-11-26T06:16:01.609Z,0
2022-11-26T06:17:01.320Z,0
2022-11-26T06:18:01.279Z,0
2022-11-26T06:19:01.545Z,0
2022-11-26T06:20:01.313Z,0
2022-11-26T06:21:01.122Z,0
2022-11-26T06:22:01.628Z,0
2022-11-26T06:23:01.614Z,0
2022-11-26T06:24:08.465Z,0
2022-11-26T06:25:01.685Z,0
2022-11-26T06:26:01.145Z,0
2022-11-26T06:27:01.418Z,0
2022-11-26T06:28:01.708Z,0
2022-11-26T06:29:01.409Z,0
2022-11-26T06:30:01.208Z,0
2022-11-26T06:31:01.603Z,0
2022-11-26T06:32:02.072Z,0
2022-11-26T06:33:01.263Z,0
2022-11-26T06:34:01.549Z,0
2022-11-26T06:35:03.461Z,0
2022-11-26T06:36:01.832Z,0
2022-11-26T06:37:01.873Z,0
2022-11-26T06:38:02.072Z,0
2022-11-26T06:39:01.604Z,0
2022-11-26T06:40:01.125Z,0
2022-11-26T06:41:01.664Z,0
2022-11-26T06:42:01.657Z,0
2022-11-26T06:43:01.684Z,0
2022-11-26T06:44:02.050Z,0
2022-11-26T06:45:07.962Z,0
2022-11-26T06:46:02.312Z,0
2022-11-26T06:47:02.145Z,0
2022-11-26T06:48:01.501Z,0
2022-11-26T06:49:01.787Z,0
2022-11-26T06:50:05.188Z,0
2022-11-26T06:51:01.834Z,0
2022-11-26T06:52:02.085Z,0
2022-11-26T06:53:02.140Z,0
2022-11-26T06:54:01.624Z,0
2022-11-26T06:55:02.138Z,0
2022-11-26T06:56:01.897Z,0
2022-11-26T06:57:01.917Z,0
2022-11-26T06:58:02.326Z,0
2022-11-26T06:59:01.668Z,0
2022-11-26T07:00:01.956Z,0
2022-11-26T07:01:02.226Z,0
2022-11-26T07:02:03.190Z,0
2022-11-26T07:03:02.927Z,0
2022-11-26T07:04:01.828Z,0
2022-11-26T07:05:02.078Z,0
2022-11-26T07:06:02.087Z,0
2022-11-26T07:07:02.116Z,0
2022-11-26T07:08:02.595Z,0
2022-11-26T07:09:02.379Z,0
2022-11-26T07:10:02.394Z,0
2022-11-26T07:11:02.381Z,0
2022-11-26T07:12:01.619Z,0
2022-11-26T07:13:02.169Z,0
2022-11-26T07:14:01.908Z,0
2022-11-26T07:15:02.176Z,0
2022-11-26T07:16:02.651Z,0
2022-11-26T07:17:02.099Z,5
2022-11-26T07:18:01.989Z,5
2022-11-26T07:19:10.445Z,5
2022-11-26T07:20:02.271Z,5
2022-11-26T07:21:02.554Z,5
2022-11-26T07:22:02.292Z,5
2022-11-26T07:23:01.859Z,5
2022-11-26T07:24:02.346Z,5
2022-11-26T07:25:02.399Z,5
2022-11-26T07:26:02.646Z,5
2022-11-26T07:27:02.123Z,5
2022-11-26T07:28:02.194Z,5
2022-11-26T07:29:02.156Z,5
2022-11-26T07:30:02.932Z,5
2022-11-26T07:31:02.738Z,5
2022-11-26T07:32:03.210Z,5
2022-11-26T07:33:02.220Z,5
2022-11-26T07:34:02.495Z,5
2022-11-26T07:35:02.956Z,5
2022-11-26T07:36:02.522Z,5
2022-11-26T07:37:07.545Z,10
2022-11-26T07:38:02.577Z,10
2022-11-26T07:39:02.321Z,10
2022-11-26T07:40:02.610Z,10
2022-11-26T07:41:02.689Z,10
2022-11-26T07:42:02.133Z,10
2022-11-26T07:43:02.934Z,10
2022-11-26T07:44:02.956Z,10
2022-11-26T07:45:02.941Z,10
2022-11-26T07:46:03.254Z,10
2022-11-26T07:47:02.730Z,10
2022-11-26T07:48:02.462Z,10
2022-11-26T07:49:02.463Z,10
2022-11-26T07:50:03.034Z,15
2022-11-26T07:51:03.073Z,15
2022-11-26T07:52:02.847Z,15
2022-11-26T07:53:02.915Z,20
2022-11-26T07:54:02.803Z,20
2022-11-26T07:55:04.981Z,20
2022-11-26T07:56:03.102Z,20
2022-11-26T07:57:02.668Z,20
2022-11-26T07:58:02.657Z,15
2022-11-26T07:59:03.004Z,20
2022-11-26T08:00:02.666Z,20
2022-11-26T08:01:08.761Z,20
2022-11-26T08:02:04.184Z,20
2022-11-26T08:03:03.712Z,15
2022-11-26T08:04:02.976Z,15
2022-11-26T08:05:02.860Z,15
2022-11-26T08:06:02.492Z,15
2022-11-26T08:07:03.337Z,15
2022-11-26T08:08:03.362Z,20
2022-11-26T08:09:02.559Z,20
2022-11-26T08:10:03.073Z,20
2022-11-26T08:11:03.083Z,20
2022-11-26T08:12:02.582Z,20
2022-11-26T08:13:03.443Z,20
2022-11-26T08:14:03.409Z,25
2022-11-26T08:15:03.430Z,25
2022-11-26T08:16:03.227Z,25
2022-11-26T08:17:02.897Z,25
2022-11-26T08:18:03.453Z,25
2022-11-26T08:19:03.229Z,30
2022-11-26T08:20:03.227Z,30
2022-11-26T08:21:03.497Z,30
2022-11-26T08:22:03.003Z,30
2022-11-26T08:23:03.337Z,35
2022-11-26T08:24:03.300Z,35
2022-11-26T08:25:03.567Z,35
2022-11-26T08:26:46.823Z,35
2022-11-26T08:27:03.628Z,35
2022-11-26T08:28:03.300Z,35
2022-11-26T08:29:03.419Z,35
2022-11-26T08:30:03.160Z,30
2022-11-26T08:31:03.803Z,35
2022-11-26T08:32:03.743Z,35
2022-11-26T08:33:03.447Z,40
2022-11-26T08:34:03.726Z,40
2022-11-26T08:35:03.456Z,40
2022-11-26T08:36:15.841Z,40
2022-11-26T08:37:03.043Z,40
2022-11-26T08:38:02.996Z,40
2022-11-26T08:39:03.829Z,40
2022-11-26T08:40:03.810Z,35
2022-11-26T08:41:03.845Z,35
2022-11-26T08:42:03.845Z,30
2022-11-26T08:43:03.607Z,30
2022-11-26T08:44:19.113Z,30
2022-11-26T08:45:03.636Z,30
2022-11-26T08:46:04.011Z,35
2022-11-26T08:47:03.948Z,35
2022-11-26T08:48:03.680Z,35
2022-11-26T08:49:03.176Z,35
2022-11-26T08:50:03.745Z,30
2022-11-26T08:51:03.468Z,35
2022-11-26T08:52:03.772Z,35
2022-11-26T08:53:03.753Z,30
2022-11-26T08:54:03.779Z,30
2022-11-26T08:55:03.909Z,25
2022-11-26T08:56:10.229Z,25
2022-11-26T08:57:03.563Z,25
2022-11-26T08:58:03.845Z,30
2022-11-26T08:59:03.857Z,30
2022-11-26T09:00:04.195Z,30
2022-11-26T09:01:04.194Z,30
2022-11-26T09:02:04.479Z,30
2022-11-26T09:03:04.422Z,30
2022-11-26T09:04:03.711Z,35
2022-11-26T09:05:04.202Z,35
2022-11-26T09:06:04.006Z,35
2022-11-26T09:07:04.255Z,35
2022-11-26T09:08:04.138Z,40
2022-11-26T09:09:04.033Z,30
2022-11-26T09:10:04.046Z,30
2022-11-26T09:11:04.365Z,30
2022-11-26T09:12:04.080Z,35
2022-11-26T09:13:04.350Z,30
2022-11-26T09:14:04.098Z,35
2022-11-26T09:15:04.109Z,30
2022-11-26T09:16:03.770Z,30
2022-11-26T09:17:04.443Z,30
2022-11-26T09:18:03.920Z,40
2022-11-26T09:19:04.177Z,35
2022-11-26T09:20:03.932Z,30
2022-11-26T09:21:07.005Z,30
2022-11-26T09:22:04.491Z,35
2022-11-26T09:23:04.528Z,45
2022-11-26T09:24:04.017Z,45
2022-11-26T09:25:04.007Z,45
2022-11-26T09:26:04.559Z,45
2022-11-26T09:27:12.670Z,35
2022-11-26T09:28:04.915Z,45
2022-11-26T09:29:03.577Z,40
2022-11-26T09:30:04.349Z,40
2022-11-26T09:31:04.392Z,35
2022-11-26T09:32:39.471Z,35
2022-11-26T09:33:04.915Z,35
2022-11-26T09:34:04.458Z,35
2022-11-26T09:35:04.458Z,35
2022-11-26T09:36:04.469Z,30
2022-11-26T09:37:04.955Z,30
2022-11-26T09:38:04.902Z,35
2022-11-26T09:39:04.932Z,35
2022-11-26T09:40:04.959Z,35
2022-11-26T09:41:04.552Z,40
2022-11-26T09:42:04.663Z,35
2022-11-26T09:43:04.611Z,30
2022-11-26T09:44:04.958Z,30
2022-11-26T09:45:04.669Z,35
2022-11-26T09:46:04.894Z,30
2022-11-26T09:47:21.538Z,35
2022-11-26T09:48:05.009Z,35
2022-11-26T09:49:10.374Z,40
2022-11-26T09:50:04.209Z,40
2022-11-26T09:51:04.978Z,40
2022-11-26T09:52:04.729Z,40
2022-11-26T09:53:04.476Z,40
2022-11-26T09:54:04.760Z,40
2022-11-26T09:55:05.039Z,40
2022-11-26T09:56:04.787Z,45
2022-11-26T09:57:04.795Z,45
2022-11-26T09:58:04.695Z,45
2022-11-26T09:59:05.147Z,40
2022-11-26T10:00:04.715Z,40
2022-11-26T10:01:05.156Z,45
2022-11-26T10:02:04.978Z,45
2022-11-26T10:03:04.946Z,45
2022-11-26T10:04:05.057Z,45
2022-11-26T10:05:04.721Z,45
2022-11-26T10:06:05.360Z,45
2022-11-26T10:07:04.984Z,50
2022-11-26T10:08:05.535Z,50
2022-11-26T10:09:05.006Z,40
2022-11-26T10:10:04.766Z,40
2022-11-26T10:11:11.415Z,45
2022-11-26T10:12:04.787Z,40
2022-11-26T10:13:27.583Z,40
2022-11-26T10:14:05.337Z,40
2022-11-26T10:15:05.159Z,45
2022-11-26T10:16:04.767Z,45
2022-11-26T10:17:05.077Z,45
2022-11-26T10:18:05.299Z,40
2022-11-26T10:19:05.383Z,40
2022-11-26T10:20:05.225Z,40
2022-11-26T10:21:04.935Z,40
2022-11-26T10:22:09.573Z,40
2022-11-26T10:23:06.898Z,40
2022-11-26T10:24:05.344Z,40
2022-11-26T10:25:05.534Z,35
2022-11-26T10:26:05.295Z,35
2022-11-26T10:27:05.289Z,35
2022-11-26T10:28:05.253Z,35
2022-11-26T10:29:05.314Z,35
2022-11-26T10:30:05.603Z,35
2022-11-26T10:31:05.716Z,35
2022-11-26T10:32:05.709Z,35
2022-11-26T10:33:05.632Z,35
2022-11-26T10:34:05.086Z,35
2022-11-26T10:35:05.686Z,35
2022-11-26T10:36:05.782Z,35
2022-11-26T10:37:05.453Z,35
2022-11-26T10:38:05.240Z,35
2022-11-26T10:39:05.374Z,35
2022-11-26T10:40:14.314Z,35
2022-11-26T10:41:05.506Z,35
2022-11-26T10:42:05.540Z,35
2022-11-26T10:43:05.290Z,35
2022-11-26T10:44:05.115Z,35
2022-11-26T10:45:09.592Z,35
2022-11-26T10:46:06.057Z,35
2022-11-26T10:47:05.929Z,35
2022-11-26T10:48:05.137Z,35
2022-11-26T10:49:05.671Z,35
2022-11-26T10:50:48.368Z,35
2022-11-26T10:51:05.218Z,35
2022-11-26T10:52:05.709Z,35
2022-11-26T10:53:05.377Z,35
2022-11-26T10:54:05.751Z,35
2022-11-26T10:55:06.262Z,35
2022-11-26T10:56:05.784Z,35
2022-11-26T10:57:05.309Z,35
2022-11-26T10:58:06.113Z,35
2022-11-26T10:59:05.569Z,35
2022-11-26T11:00:06.136Z,35
2022-11-26T11:01:06.451Z,35
2022-11-26T11:02:08.044Z,40
2022-11-26T11:03:06.350Z,40
2022-11-26T11:04:21.190Z,40
2022-11-26T11:05:05.930Z,40
2022-11-26T11:06:05.662Z,40
2022-11-26T11:07:12.050Z,45
2022-11-26T11:08:06.831Z,45
2022-11-26T11:09:05.973Z,50
2022-11-26T11:10:05.769Z,50
2022-11-26T11:11:06.020Z,50
2022-11-26T11:12:06.031Z,50
2022-11-26T11:13:06.345Z,45
2022-11-26T11:14:06.055Z,45
2022-11-26T11:15:06.332Z,45
2022-11-26T11:16:06.367Z,40
2022-11-26T11:17:06.397Z,40
2022-11-26T11:18:06.164Z,40
2022-11-26T11:19:06.424Z,35
2022-11-26T11:20:06.205Z,40
2022-11-26T11:21:05.918Z,40
2022-11-26T11:22:05.667Z,40
2022-11-26T11:23:07.039Z,35
2022-11-26T11:24:21.563Z,35
2022-11-26T11:25:06.245Z,35
2022-11-26T11:26:06.279Z,35
2022-11-26T11:27:06.014Z,35
2022-11-26T11:28:12.904Z,35
2022-11-26T11:29:06.323Z,35
2022-11-26T11:30:06.059Z,35
2022-11-26T11:31:06.783Z,35
2022-11-26T11:32:06.511Z,35
2022-11-26T11:33:06.656Z,35
2022-11-26T11:34:06.431Z,35
2022-11-26T11:35:06.704Z,35
2022-11-26T11:36:06.446Z,35
2022-11-26T11:37:08.689Z,35
2022-11-26T11:38:06.191Z,35
2022-11-26T11:39:06.250Z,30
2022-11-26T11:40:06.887Z,30
2022-11-26T11:41:06.510Z,30
2022-11-26T11:42:06.854Z,35
2022-11-26T11:43:06.297Z,35
2022-11-26T11:44:06.808Z,35
2022-11-26T11:45:06.883Z,35
2022-11-26T11:46:06.448Z,35
2022-11-26T11:47:06.615Z,35
2022-11-26T11:48:06.870Z,35
2022-11-26T11:49:06.642Z,35
2022-11-26T11:50:06.702Z,35
2022-11-26T11:51:06.691Z,35
2022-11-26T11:52:06.696Z,35
2022-11-26T11:53:06.811Z,30
2022-11-26T11:54:06.982Z,30
2022-11-26T11:55:06.785Z,35
2022-11-26T11:56:11.682Z,30
2022-11-26T11:57:06.781Z,35
2022-11-26T11:58:06.552Z,35
2022-11-26T11:59:07.086Z,35
2022-11-26T12:00:07.123Z,35
2022-11-26T12:01:06.835Z,35
2022-11-26T12:02:07.490Z,35
2022-11-26T12:03:09.353Z,35
2022-11-26T12:04:15.151Z,35
2022-11-26T12:05:07.226Z,35
2022-11-26T12:06:07.208Z,35
2022-11-26T12:07:07.233Z,35
2022-11-26T12:08:07.232Z,35
2022-11-26T12:09:06.705Z,35
2022-11-26T12:10:07.325Z,35
2022-11-26T12:11:07.288Z,35
2022-11-26T12:12:07.328Z,35
2022-11-26T12:13:07.080Z,40
2022-11-26T12:14:06.842Z,40
2022-11-26T12:15:06.805Z,40
2022-11-26T12:16:06.858Z,40
2022-11-26T12:17:08.056Z,35
2022-11-26T12:18:06.858Z,30
2022-11-26T12:19:07.149Z,30
2022-11-26T12:20:07.464Z,35
2022-11-26T12:21:07.193Z,35
2022-11-26T12:22:07.230Z,35
2022-11-26T12:23:14.265Z,35
2022-11-26T12:24:06.969Z,35
2022-11-26T12:25:07.245Z,35
2022-11-26T12:26:06.726Z,35
2022-11-26T12:27:07.026Z,35
2022-11-26T12:28:07.771Z,30
2022-11-26T12:29:07.449Z,30
2022-11-26T12:30:07.098Z,30
2022-11-26T12:31:06.804Z,30
2022-11-26T12:32:07.866Z,30
2022-11-26T12:33:07.458Z,35
2022-11-26T12:34:13.316Z,40
2022-11-26T12:35:07.169Z,35
2022-11-26T12:36:07.168Z,40
2022-11-26T12:37:07.214Z,40
2022-11-26T12:38:07.809Z,40
2022-11-26T12:39:07.478Z,40
2022-11-26T12:40:07.771Z,40
2022-11-26T12:41:06.980Z,40
2022-11-26T12:42:07.502Z,40
2022-11-26T12:43:07.549Z,40
2022-11-26T12:44:07.331Z,45
2022-11-26T12:45:12.187Z,45
2022-11-26T12:46:07.934Z,45
2022-11-26T12:47:07.852Z,45
2022-11-26T12:48:07.865Z,45
2022-11-26T12:49:07.760Z,50
2022-11-26T12:50:07.636Z,50
2022-11-26T12:51:07.944Z,50
2022-11-26T12:52:07.793Z,50
2022-11-26T12:53:07.961Z,50
2022-11-26T12:54:07.993Z,50
2022-11-26T12:55:08.019Z,50
2022-11-26T12:56:07.993Z,55
2022-11-26T12:57:08.000Z,55
2022-11-26T12:58:07.775Z,55
2022-11-26T12:59:07.822Z,55
2022-11-26T13:00:07.825Z,55
2022-11-26T13:01:08.423Z,55
2022-11-26T13:02:07.990Z,50
2022-11-26T13:03:07.852Z,55
2022-11-26T13:04:46.205Z,55
2022-11-26T13:05:08.132Z,55
2022-11-26T13:06:07.916Z,50
2022-11-26T13:07:07.679Z,50
2022-11-26T13:08:08.159Z,50
2022-11-26T13:09:08.242Z,50
2022-11-26T13:10:07.987Z,50
2022-11-26T13:11:13.435Z,45
2022-11-26T13:12:08.010Z,45
2022-11-26T13:13:07.746Z,45
2022-11-26T13:14:07.779Z,45
2022-11-26T13:15:08.491Z,45
2022-11-26T13:16:08.736Z,45
2022-11-26T13:17:08.630Z,45
2022-11-26T13:18:08.447Z,40
2022-11-26T13:19:14.954Z,40
2022-11-26T13:20:08.136Z,40
2022-11-26T13:21:07.910Z,40
2022-11-26T13:22:07.897Z,40
2022-11-26T13:23:08.170Z,40
2022-11-26T13:24:08.201Z,40
2022-11-26T13:25:08.473Z,40
2022-11-26T13:26:08.517Z,40
2022-11-26T13:27:08.553Z,40
2022-11-26T13:28:08.526Z,40
2022-11-26T13:29:08.535Z,40
2022-11-26T13:30:08.087Z,40
2022-11-26T13:31:08.593Z,40
2022-11-26T13:32:15.851Z,40
2022-11-26T13:33:08.635Z,40
2022-11-26T13:34:08.127Z,40
2022-11-26T13:35:08.383Z,40
2022-11-26T13:36:08.705Z,40
2022-11-26T13:37:08.418Z,40
2022-11-26T13:38:08.170Z,40
2022-11-26T13:39:08.444Z,40
2022-11-26T13:40:08.013Z,40
2022-11-26T13:41:08.654Z,40
2022-11-26T13:42:08.632Z,40
2022-11-26T13:43:08.533Z,35
2022-11-26T13:44:08.829Z,35
2022-11-26T13:45:08.825Z,35
2022-11-26T13:46:08.855Z,35
2022-11-26T13:47:08.614Z,35
2022-11-26T13:48:08.371Z,30
2022-11-26T13:49:08.636Z,30
2022-11-26T13:50:08.910Z,30
2022-11-26T13:51:08.646Z,30
2022-11-26T13:52:08.408Z,30
2022-11-26T13:53:08.930Z,30
2022-11-26T13:54:08.982Z,25
2022-11-26T13:55:08.974Z,25
2022-11-26T13:56:08.810Z,25
2022-11-26T13:57:08.754Z,25
2022-11-26T13:58:09.101Z,25
2022-11-26T13:59:08.288Z,25
2022-11-26T14:00:08.798Z,25
2022-11-26T14:01:08.472Z,25
2022-11-26T14:02:09.489Z,25
2022-11-26T14:03:08.885Z,25
2022-11-26T14:04:08.918Z,25
2022-11-26T14:05:09.139Z,25
2022-11-26T14:06:15.408Z,25
2022-11-26T14:07:08.716Z,25
2022-11-26T14:08:09.255Z,25
2022-11-26T14:09:08.693Z,25
2022-11-26T14:10:09.257Z,20
2022-11-26T14:11:09.229Z,20
2022-11-26T14:12:09.000Z,20
2022-11-26T14:13:09.326Z,20
2022-11-26T14:14:09.053Z,20
2022-11-26T14:15:09.332Z,20
2022-11-26T14:16:08.990Z,20
2022-11-26T14:17:09.553Z,20
2022-11-26T14:18:09.094Z,15
2022-11-26T14:19:09.135Z,15
2022-11-26T14:20:09.209Z,15
2022-11-26T14:21:09.140Z,15
2022-11-26T14:22:09.197Z,15
2022-11-26T14:23:13.577Z,15
2022-11-26T14:24:09.198Z,15
2022-11-26T14:25:09.233Z,15
2022-11-26T14:26:09.009Z,15
2022-11-26T14:27:08.986Z,15
2022-11-26T14:28:09.518Z,15
2022-11-26T14:29:14.411Z,15
2022-11-26T14:30:09.116Z,15
2022-11-26T14:31:09.610Z,15
2022-11-26T14:32:09.939Z,15